sensor_id;sensor_type;location;lat;lon;timestamp;pressure;altitude;pressure_sealevel;temperature;humidity
14253;BME280;7210;51.502;10.722;2023-02-19T00:00:21;99692.41;;;8.53;100.00
14253;BME280;7210;51.502;10.722;2023-02-19T00:02:49;99692.41;;;8.53;100.00
14253;BME280;7210;51.502;10.722;2023-02-19T00:05:20;99688.75;;;8.54;100.00
14253;BME280;7210;51.502;10.722;2023-02-19T00:07:57;99691.38;;;8.54;100.00
14253;BME280;7210;51.502;10.722;2023-02-19T00:10:24;99700.31;;;8.53;100.00
14253;BME280;7210;51.502;10.722;2023-02-19T00:12:51;99694.03;;;8.54;100.00
14253;BME280;7210;51.502;10.722;2023-02-19T00:15:19;99686.75;;;8.56;100.00
14253;BME280;7210;51.502;10.722;2023-02-19T00:17:46;99685.72;;;8.57;100.00
14253;BME280;7210;51.502;10.722;2023-02-19T00:20:13;99668.91;;;8.52;100.00
14253;BME280;7210;51.502;10.722;2023-02-19T00:22:43;99664.25;;;8.54;100.00
14253;BME280;7210;51.502;10.722;2023-02-19T00:25:14;99658.16;;;8.53;100.00
14253;BME280;7210;51.502;10.722;2023-02-19T00:27:52;99651.47;;;8.57;100.00
14253;BME280;7210;51.502;10.722;2023-02-19T00:30:22;99634.03;;;8.56;100.00
14253;BME280;7210;51.502;10.722;2023-02-19T00:32:50;99640.91;;;8.57;100.00
14253;BME280;7210;51.502;10.722;2023-02-19T00:35:17;99628.31;;;8.59;100.00
14253;BME280;7210;51.502;10.722;2023-02-19T00:37:45;99599.22;;;8.48;100.00
14253;BME280;7210;51.502;10.722;2023-02-19T00:40:13;99604.78;;;8.64;100.00
14253;BME280;7210;51.502;10.722;2023-02-19T00:42:40;99590.78;;;8.64;100.00
14253;BME280;7210;51.502;10.722;2023-02-19T00:45:09;99594.25;;;8.64;100.00
14253;BME280;7210;51.502;10.722;2023-02-19T00:47:38;99595.88;;;8.59;100.00
14253;BME280;7210;51.502;10.722;2023-02-19T00:50:07;99590.22;;;8.55;100.00
14253;BME280;7210;51.502;10.722;2023-02-19T00:52:34;99585.16;;;8.60;100.00
14253;BME280;7210;51.502;10.722;2023-02-19T00:55:03;99587.19;;;8.58;100.00
14253;BME280;7210;51.502;10.722;2023-02-19T00:57:49;99585.97;;;8.61;100.00
14253;BME280;7210;51.502;10.722;2023-02-19T01:00:18;99576.22;;;8.61;100.00
14253;BME280;7210;51.502;10.722;2023-02-19T01:02:50;99571.97;;;8.60;100.00
14253;BME280;7210;51.502;10.722;2023-02-19T01:05:25;99573.19;;;8.58;100.00
14253;BME280;7210;51.502;10.722;2023-02-19T01:07:52;99560.25;;;8.56;100.00
14253;BME280;7210;51.502;10.722;2023-02-19T01:10:21;99551.34;;;8.57;100.00
14253;BME280;7210;51.502;10.722;2023-02-19T01:12:48;99537.53;;;8.55;100.00
14253;BME280;7210;51.502;10.722;2023-02-19T01:15:15;99525.00;;;8.51;100.00
14253;BME280;7210;51.502;10.722;2023-02-19T01:17:45;99523.38;;;8.56;100.00
14253;BME280;7210;51.502;10.722;2023-02-19T01:20:14;99512.22;;;8.54;100.00
14253;BME280;7210;51.502;10.722;2023-02-19T01:22:41;99510.59;;;8.53;100.00
14253;BME280;7210;51.502;10.722;2023-02-19T01:25:08;99504.94;;;8.56;100.00
14253;BME280;7210;51.502;10.722;2023-02-19T01:27:37;99500.44;;;8.57;100.00
14253;BME280;7210;51.502;10.722;2023-02-19T01:30:05;99499.66;;;8.56;100.00
14253;BME280;7210;51.502;10.722;2023-02-19T01:32:32;99499.22;;;8.59;100.00
14253;BME280;7210;51.502;10.722;2023-02-19T01:35:00;99500.25;;;8.58;100.00
14253;BME280;7210;51.502;10.722;2023-02-19T01:37:32;99510.34;;;8.61;100.00
14253;BME280;7210;51.502;10.722;2023-02-19T01:40:07;99505.06;;;8.61;100.00
14253;BME280;7210;51.502;10.722;2023-02-19T01:42:45;99489.84;;;8.63;100.00
14253;BME280;7210;51.502;10.722;2023-02-19T01:45:22;99486.63;;;8.61;100.00
14253;BME280;7210;51.502;10.722;2023-02-19T01:47:55;99482.81;;;8.57;100.00
14253;BME280;7210;51.502;10.722;2023-02-19T01:50:27;99475.94;;;8.56;100.00
14253;BME280;7210;51.502;10.722;2023-02-19T01:52:56;99477.09;;;8.60;100.00
14253;BME280;7210;51.502;10.722;2023-02-19T01:55:23;99467.00;;;8.57;100.00
14253;BME280;7210;51.502;10.722;2023-02-19T01:57:57;99456.88;;;8.54;100.00
14253;BME280;7210;51.502;10.722;2023-02-19T02:00:32;99452.84;;;8.52;100.00
14253;BME280;7210;51.502;10.722;2023-02-19T02:03:00;99457.53;;;8.50;100.00
14253;BME280;7210;51.502;10.722;2023-02-19T02:05:39;99457.78;;;8.48;100.00
14253;BME280;7210;51.502;10.722;2023-02-19T02:08:08;99454.53;;;8.46;100.00
14253;BME280;7210;51.502;10.722;2023-02-19T02:10:54;99449.25;;;8.46;100.00
14253;BME280;7210;51.502;10.722;2023-02-19T02:13:25;99454.53;;;8.46;100.00
14253;BME280;7210;51.502;10.722;2023-02-19T02:16:05;99461.00;;;8.50;100.00
14253;BME280;7210;51.502;10.722;2023-02-19T02:19:00;99445.59;;;8.47;100.00
14253;BME280;7210;51.502;10.722;2023-02-19T02:21:56;99436.09;;;8.46;100.00
14253;BME280;7210;51.502;10.722;2023-02-19T02:25:28;99430.25;;;8.44;100.00
14253;BME280;7210;51.502;10.722;2023-02-19T02:28:16;99420.94;;;8.42;100.00
14253;BME280;7210;51.502;10.722;2023-02-19T02:30:53;99426.00;;;8.43;100.00
14253;BME280;7210;51.502;10.722;2023-02-19T02:33:31;99409.16;;;8.44;100.00
14253;BME280;7210;51.502;10.722;2023-02-19T02:36:09;99395.41;;;8.42;100.00
14253;BME280;7210;51.502;10.722;2023-02-19T02:38:43;99380.03;;;8.39;100.00
14253;BME280;7210;51.502;10.722;2023-02-19T02:41:13;99379.25;;;8.39;100.00
14253;BME280;7210;51.502;10.722;2023-02-19T02:43:41;99377.03;;;8.36;100.00
14253;BME280;7210;51.502;10.722;2023-02-19T02:46:15;99369.94;;;8.36;100.00
14253;BME280;7210;51.502;10.722;2023-02-19T02:48:47;99365.91;;;8.34;100.00
14253;BME280;7210;51.502;10.722;2023-02-19T02:51:23;99375.66;;;8.33;100.00
14253;BME280;7210;51.502;10.722;2023-02-19T02:54:20;99374.63;;;8.34;100.00
14253;BME280;7210;51.502;10.722;2023-02-19T02:57:12;99368.91;;;8.37;100.00
14253;BME280;7210;51.502;10.722;2023-02-19T02:59:48;99371.53;;;8.37;100.00
14253;BME280;7210;51.502;10.722;2023-02-19T03:02:27;99373.16;;;8.38;100.00
14253;BME280;7210;51.502;10.722;2023-02-19T03:05:15;99367.91;;;8.56;100.00
14253;BME280;7210;51.502;10.722;2023-02-19T03:08:10;99369.06;;;8.78;100.00
14253;BME280;7210;51.502;10.722;2023-02-19T03:10:53;99373.81;;;8.88;100.00
14253;BME280;7210;51.502;10.722;2023-02-19T03:13:38;99363.66;;;8.91;100.00
14253;BME280;7210;51.502;10.722;2023-02-19T03:16:30;99359.09;;;8.98;100.00
14253;BME280;7210;51.502;10.722;2023-02-19T03:19:21;99349.28;;;9.05;100.00
14253;BME280;7210;51.502;10.722;2023-02-19T03:21:58;99328.53;;;9.09;100.00
14253;BME280;7210;51.502;10.722;2023-02-19T03:24:29;99331.97;;;9.09;100.00
14253;BME280;7210;51.502;10.722;2023-02-19T03:27:17;99323.00;;;9.28;100.00
14253;BME280;7210;51.502;10.722;2023-02-19T03:29:53;99330.81;;;9.35;100.00
14253;BME280;7210;51.502;10.722;2023-02-19T03:32:28;99323.72;;;9.35;100.00
14253;BME280;7210;51.502;10.722;2023-02-19T03:35:05;99315.66;;;9.30;100.00
14253;BME280;7210;51.502;10.722;2023-02-19T03:37:48;99309.66;;;9.23;100.00
14253;BME280;7210;51.502;10.722;2023-02-19T03:40:18;99297.25;;;9.12;100.00
14253;BME280;7210;51.502;10.722;2023-02-19T03:42:55;99305.47;;;9.04;100.00
14253;BME280;7210;51.502;10.722;2023-02-19T03:45:37;99299.50;;;8.97;100.00
14253;BME280;7210;51.502;10.722;2023-02-19T03:48:29;99311.06;;;8.96;100.00
14253;BME280;7210;51.502;10.722;2023-02-19T03:51:25;99314.94;;;8.94;100.00
14253;BME280;7210;51.502;10.722;2023-02-19T03:54:10;99315.97;;;8.93;100.00
14253;BME280;7210;51.502;10.722;2023-02-19T03:56:47;99318.25;;;8.89;100.00
14253;BME280;7210;51.502;10.722;2023-02-19T03:59:26;99315.84;;;8.88;100.00
14253;BME280;7210;51.502;10.722;2023-02-19T04:02:04;99323.25;;;8.79;100.00
14253;BME280;7210;51.502;10.722;2023-02-19T04:04:36;99332.78;;;8.80;100.00
14253;BME280;7210;51.502;10.722;2023-02-19T04:07:06;99332.53;;;8.82;100.00
14253;BME280;7210;51.502;10.722;2023-02-19T04:09:41;99334.13;;;8.83;100.00
14253;BME280;7210;51.502;10.722;2023-02-19T04:12:14;99341.41;;;8.87;100.00
14253;BME280;7210;51.502;10.722;2023-02-19T04:14:49;99344.97;;;8.93;100.00
14253;BME280;7210;51.502;10.722;2023-02-19T04:17:23;99349.00;;;8.95;100.00
14253;BME280;7210;51.502;10.722;2023-02-19T04:19:56;99339.81;;;8.98;100.00
14253;BME280;7210;51.502;10.722;2023-02-19T04:22:27;99355.44;;;8.99;100.00
14253;BME280;7210;51.502;10.722;2023-02-19T04:24:55;99340.06;;;8.96;100.00
14253;BME280;7210;51.502;10.722;2023-02-19T04:27:22;99344.88;;;8.99;100.00
14253;BME280;7210;51.502;10.722;2023-02-19T04:29:50;99355.44;;;8.99;100.00
14253;BME280;7210;51.502;10.722;2023-02-19T04:32:17;99360.69;;;8.99;100.00
14253;BME280;7210;51.502;10.722;2023-02-19T04:34:47;99365.97;;;8.99;100.00
14253;BME280;7210;51.502;10.722;2023-02-19T04:37:14;99373.31;;;8.97;100.00
14253;BME280;7210;51.502;10.722;2023-02-19T04:39:43;99378.13;;;9.00;100.00
14253;BME280;7210;51.502;10.722;2023-02-19T04:42:10;99371.72;;;8.96;100.00
14253;BME280;7210;51.502;10.722;2023-02-19T04:44:37;99375.78;;;8.92;100.00
14253;BME280;7210;51.502;10.722;2023-02-19T04:47:04;99380.03;;;8.93;100.00
14253;BME280;7210;51.502;10.722;2023-02-19T04:49:32;99382.31;;;8.90;100.00
14253;BME280;7210;51.502;10.722;2023-02-19T04:51:59;99381.94;;;8.86;100.00
14253;BME280;7210;51.502;10.722;2023-02-19T04:54:26;99391.50;;;8.87;100.00
14253;BME280;7210;51.502;10.722;2023-02-19T04:56:54;99406.28;;;8.88;100.00
14253;BME280;7210;51.502;10.722;2023-02-19T04:59:22;99410.72;;;8.88;100.00
14253;BME280;7210;51.502;10.722;2023-02-19T05:01:51;99401.44;;;8.85;100.00
14253;BME280;7210;51.502;10.722;2023-02-19T05:04:20;99418.44;;;8.89;100.00
14253;BME280;7210;51.502;10.722;2023-02-19T05:06:49;99413.72;;;8.91;100.00
14253;BME280;7210;51.502;10.722;2023-02-19T05:09:17;99415.22;;;8.87;100.00
14253;BME280;7210;51.502;10.722;2023-02-19T05:11:44;99427.72;;;8.92;100.00
14253;BME280;7210;51.502;10.722;2023-02-19T05:14:13;99432.19;;;8.91;100.00
14253;BME280;7210;51.502;10.722;2023-02-19T05:16:43;99433.38;;;8.95;100.00
14253;BME280;7210;51.502;10.722;2023-02-19T05:19:11;99423.25;;;8.92;100.00
14253;BME280;7210;51.502;10.722;2023-02-19T05:21:39;99422.81;;;8.95;100.00
14253;BME280;7210;51.502;10.722;2023-02-19T05:24:06;99418.56;;;8.94;100.00
14253;BME280;7210;51.502;10.722;2023-02-19T05:26:34;99414.91;;;8.95;100.00
14253;BME280;7210;51.502;10.722;2023-02-19T05:29:02;99421.81;;;8.96;100.00
14253;BME280;7210;51.502;10.722;2023-02-19T05:31:31;99414.31;;;8.93;100.00
14253;BME280;7210;51.502;10.722;2023-02-19T05:33:59;99409.94;;;8.87;100.00
14253;BME280;7210;51.502;10.722;2023-02-19T05:36:27;99410.28;;;8.91;100.00
14253;BME280;7210;51.502;10.722;2023-02-19T05:38:55;99418.44;;;8.89;100.00
14253;BME280;7210;51.502;10.722;2023-02-19T05:41:25;99417.25;;;8.85;100.00
14253;BME280;7210;51.502;10.722;2023-02-19T05:43:54;99416.66;;;8.83;100.00
14253;BME280;7210;51.502;10.722;2023-02-19T05:46:24;99427.22;;;8.83;100.00
14253;BME280;7210;51.502;10.722;2023-02-19T05:48:53;99438.78;;;8.82;100.00
14253;BME280;7210;51.502;10.722;2023-02-19T05:51:23;99433.50;;;8.82;100.00
14253;BME280;7210;51.502;10.722;2023-02-19T05:53:52;99428.44;;;8.81;100.00
14253;BME280;7210;51.502;10.722;2023-02-19T05:56:32;99438.63;;;8.77;100.00
14253;BME280;7210;51.502;10.722;2023-02-19T05:59:02;99445.09;;;8.81;100.00
14253;BME280;7210;51.502;10.722;2023-02-19T06:01:35;99441.88;;;8.79;100.00
14253;BME280;7210;51.502;10.722;2023-02-19T06:04:04;99446.53;;;8.77;100.00
14253;BME280;7210;51.502;10.722;2023-02-19T06:06:32;99459.88;;;8.82;100.00
14253;BME280;7210;51.502;10.722;2023-02-19T06:08:59;99465.72;;;8.84;100.00
14253;BME280;7210;51.502;10.722;2023-02-19T06:11:28;99454.16;;;8.85;100.00
14253;BME280;7210;51.502;10.722;2023-02-19T06:13:56;99458.84;;;8.83;100.00
14253;BME280;7210;51.502;10.722;2023-02-19T06:16:23;99466.38;;;8.80;100.00
14253;BME280;7210;51.502;10.722;2023-02-19T06:18:50;99453.84;;;8.75;100.00
14253;BME280;7210;51.502;10.722;2023-02-19T06:21:19;99457.94;;;8.71;100.00
14253;BME280;7210;51.502;10.722;2023-02-19T06:23:47;99456.31;;;8.70;100.00
14253;BME280;7210;51.502;10.722;2023-02-19T06:26:17;99461.22;;;8.67;100.00
14253;BME280;7210;51.502;10.722;2023-02-19T06:28:47;99446.34;;;8.54;100.00
14253;BME280;7210;51.502;10.722;2023-02-19T06:31:16;99461.28;;;8.60;100.00
14253;BME280;7210;51.502;10.722;2023-02-19T06:33:43;99465.41;;;8.56;100.00
14253;BME280;7210;51.502;10.722;2023-02-19T06:36:14;99468.63;;;8.58;100.00
14253;BME280;7210;51.502;10.722;2023-02-19T06:38:43;99473.72;;;8.53;100.00
14253;BME280;7210;51.502;10.722;2023-02-19T06:41:11;99473.13;;;8.51;100.00
14253;BME280;7210;51.502;10.722;2023-02-19T06:43:40;99478.41;;;8.51;100.00
14253;BME280;7210;51.502;10.722;2023-02-19T06:46:10;99478.41;;;8.51;100.00
14253;BME280;7210;51.502;10.722;2023-02-19T06:48:44;99480.47;;;8.49;100.00
14253;BME280;7210;51.502;10.722;2023-02-19T06:51:13;99488.94;;;8.51;100.00
14253;BME280;7210;51.502;10.722;2023-02-19T06:53:42;99489.41;;;8.48;100.00
14253;BME280;7210;51.502;10.722;2023-02-19T06:56:23;99486.97;;;8.47;100.00
14253;BME280;7210;51.502;10.722;2023-02-19T06:58:52;99496.84;;;8.51;100.00
14253;BME280;7210;51.502;10.722;2023-02-19T07:01:19;99497.06;;;8.50;100.00
14253;BME280;7210;51.502;10.722;2023-02-19T07:03:46;99497.88;;;8.50;100.00
14253;BME280;7210;51.502;10.722;2023-02-19T07:06:17;99506.56;;;8.51;100.00
14253;BME280;7210;51.502;10.722;2023-02-19T07:08:46;99511.84;;;8.51;100.00
14253;BME280;7210;51.502;10.722;2023-02-19T07:11:13;99516.53;;;8.49;100.00
14253;BME280;7210;51.502;10.722;2023-02-19T07:13:41;99517.75;;;8.46;100.00
14253;BME280;7210;51.502;10.722;2023-02-19T07:16:09;99525.84;;;8.51;100.00
14253;BME280;7210;51.502;10.722;2023-02-19T07:18:38;99535.78;;;8.49;100.00
14253;BME280;7210;51.502;10.722;2023-02-19T07:21:08;99554.06;;;8.44;100.00
14253;BME280;7210;51.502;10.722;2023-02-19T07:23:36;99542.72;;;8.06;100.00
14253;BME280;7210;51.502;10.722;2023-02-19T07:26:08;99527.25;;;7.85;100.00
14253;BME280;7210;51.502;10.722;2023-02-19T07:28:36;99527.97;;;7.61;100.00
14253;BME280;7210;51.502;10.722;2023-02-19T07:31:04;99541.78;;;7.50;100.00
14253;BME280;7210;51.502;10.722;2023-02-19T07:33:32;99543.03;;;7.41;100.00
14253;BME280;7210;51.502;10.722;2023-02-19T07:35:59;99550.34;;;7.33;100.00
14253;BME280;7210;51.502;10.722;2023-02-19T07:38:26;99544.69;;;7.29;100.00
14253;BME280;7210;51.502;10.722;2023-02-19T07:40:56;99556.81;;;7.30;100.00
14253;BME280;7210;51.502;10.722;2023-02-19T07:43:29;99568.75;;;7.20;100.00
14253;BME280;7210;51.502;10.722;2023-02-19T07:45:58;99580.31;;;7.13;100.00
14253;BME280;7210;51.502;10.722;2023-02-19T07:48:28;99588.81;;;7.08;100.00
14253;BME280;7210;51.502;10.722;2023-02-19T07:50:58;99587.00;;;7.02;100.00
14253;BME280;7210;51.502;10.722;2023-02-19T07:53:27;99600.75;;;6.98;100.00
14253;BME280;7210;51.502;10.722;2023-02-19T07:55:58;99616.53;;;6.98;100.00
14253;BME280;7210;51.502;10.722;2023-02-19T07:58:28;99625.22;;;7.05;100.00
14253;BME280;7210;51.502;10.722;2023-02-19T08:00:56;99628.44;;;7.07;100.00
14253;BME280;7210;51.502;10.722;2023-02-19T08:03:23;99633.09;;;7.05;100.00
14253;BME280;7210;51.502;10.722;2023-02-19T08:05:49;99651.09;;;7.08;100.00
14253;BME280;7210;51.502;10.722;2023-02-19T08:08:18;99664.84;;;7.16;100.00
14253;BME280;7210;51.502;10.722;2023-02-19T08:10:50;99677.59;;;7.26;100.00
14253;BME280;7210;51.502;10.722;2023-02-19T08:13:40;99696.56;;;7.34;100.00
14253;BME280;7210;51.502;10.722;2023-02-19T08:16:15;99677.16;;;7.16;100.00
14253;BME280;7210;51.502;10.722;2023-02-19T08:18:45;99707.69;;;7.17;100.00
14253;BME280;7210;51.502;10.722;2023-02-19T08:21:13;99701.66;;;7.10;100.00
14253;BME280;7210;51.502;10.722;2023-02-19T08:23:43;99705.28;;;7.09;100.00
14253;BME280;7210;51.502;10.722;2023-02-19T08:26:11;99703.47;;;7.09;100.00
14253;BME280;7210;51.502;10.722;2023-02-19T08:28:43;99694.75;;;7.09;100.00
14253;BME280;7210;51.502;10.722;2023-02-19T08:31:11;99705.91;;;7.11;100.00
14253;BME280;7210;51.502;10.722;2023-02-19T08:33:38;99711.53;;;7.08;100.00
14253;BME280;7210;51.502;10.722;2023-02-19T08:36:09;99705.91;;;7.11;100.00
14253;BME280;7210;51.502;10.722;2023-02-19T08:38:36;99702.84;;;7.14;100.00
14253;BME280;7210;51.502;10.722;2023-02-19T08:41:05;99690.72;;;7.13;100.00
14253;BME280;7210;51.502;10.722;2023-02-19T08:43:33;99692.34;;;7.14;100.00
14253;BME280;7210;51.502;10.722;2023-02-19T08:46:03;99693.94;;;7.15;100.00
14253;BME280;7210;51.502;10.722;2023-02-19T08:48:31;99685.47;;;7.13;100.00
14253;BME280;7210;51.502;10.722;2023-02-19T08:51:02;99690.72;;;7.13;100.00
14253;BME280;7210;51.502;10.722;2023-02-19T08:53:30;99690.31;;;7.16;100.00
14253;BME280;7210;51.502;10.722;2023-02-19T08:55:58;99703.69;;;7.33;100.00
14253;BME280;7210;51.502;10.722;2023-02-19T08:58:29;99691.50;;;7.58;100.00
14253;BME280;7210;51.502;10.722;2023-02-19T09:00:57;99723.44;;;7.81;100.00
14253;BME280;7210;51.502;10.722;2023-02-19T09:03:26;99740.22;;;7.93;100.00
14253;BME280;7210;51.502;10.722;2023-02-19T09:05:53;99752.16;;;8.02;100.00
14253;BME280;7210;51.502;10.722;2023-02-19T09:08:20;99757.38;;;8.15;100.00
14253;BME280;7210;51.502;10.722;2023-02-19T09:10:57;99769.13;;;8.13;100.00
14253;BME280;7210;51.502;10.722;2023-02-19T09:13:24;99771.94;;;8.18;100.00
14253;BME280;7210;51.502;10.722;2023-02-19T09:15:52;99776.03;;;8.07;100.00
14253;BME280;7210;51.502;10.722;2023-02-19T09:18:22;99763.50;;;7.96;100.00
14253;BME280;7210;51.502;10.722;2023-02-19T09:20:51;99772.44;;;7.82;100.00
14253;BME280;7210;51.502;10.722;2023-02-19T09:23:18;99768.41;;;7.67;100.00
14253;BME280;7210;51.502;10.722;2023-02-19T09:25:46;99746.53;;;7.53;100.00
14253;BME280;7210;51.502;10.722;2023-02-19T09:28:13;99741.88;;;7.49;100.00
14253;BME280;7210;51.502;10.722;2023-02-19T09:30:41;99732.59;;;7.21;100.00
14253;BME280;7210;51.502;10.722;2023-02-19T09:33:09;99746.16;;;7.37;100.00
14253;BME280;7210;51.502;10.722;2023-02-19T09:35:41;99754.84;;;7.37;100.00
14253;BME280;7210;51.502;10.722;2023-02-19T09:38:12;99763.97;;;7.41;100.00
14253;BME280;7210;51.502;10.722;2023-02-19T09:40:39;99781.75;;;7.52;100.00
14253;BME280;7210;51.502;10.722;2023-02-19T09:43:10;99770.44;;;7.52;100.00
14253;BME280;7210;51.502;10.722;2023-02-19T09:45:41;99774.88;;;7.45;100.00
14253;BME280;7210;51.502;10.722;2023-02-19T09:48:11;99773.25;;;7.25;100.00
14253;BME280;7210;51.502;10.722;2023-02-19T09:50:41;99749.72;;;6.97;100.00
14253;BME280;7210;51.502;10.722;2023-02-19T09:53:17;99770.38;;;7.07;100.00
14253;BME280;7210;51.502;10.722;2023-02-19T09:55:46;99773.59;;;7.02;100.00
14253;BME280;7210;51.502;10.722;2023-02-19T09:58:22;99791.81;;;7.17;100.00
14253;BME280;7210;51.502;10.722;2023-02-19T10:00:54;99785.38;;;7.13;100.00
14253;BME280;7210;51.502;10.722;2023-02-19T10:03:28;99793.47;;;7.18;100.00
14253;BME280;7210;51.502;10.722;2023-02-19T10:06:17;99794.69;;;7.15;100.00
14253;BME280;7210;51.502;10.722;2023-02-19T10:08:52;99797.91;;;7.11;100.00
14253;BME280;7210;51.502;10.722;2023-02-19T10:11:21;99792.59;;;6.98;100.00
14253;BME280;7210;51.502;10.722;2023-02-19T10:14:06;99786.94;;;6.88;100.00
14253;BME280;7210;51.502;10.722;2023-02-19T10:16:38;99782.47;;;6.82;100.00
14253;BME280;7210;51.502;10.722;2023-02-19T10:19:09;99800.50;;;6.98;100.00
14253;BME280;7210;51.502;10.722;2023-02-19T10:21:37;99802.28;;;6.97;100.00
14253;BME280;7210;51.502;10.722;2023-02-19T10:24:17;99812.00;;;6.90;100.00
14253;BME280;7210;51.502;10.722;2023-02-19T10:26:48;99831.84;;;7.06;100.00
14253;BME280;7210;51.502;10.722;2023-02-19T10:29:15;99835.91;;;7.15;100.00
14253;BME280;7210;51.502;10.722;2023-02-19T10:31:44;99847.25;;;7.22;100.00
14253;BME280;7210;51.502;10.722;2023-02-19T10:34:18;99845.81;;;7.13;100.00
14253;BME280;7210;51.502;10.722;2023-02-19T10:36:49;99853.94;;;7.18;100.00
14253;BME280;7210;51.502;10.722;2023-02-19T10:39:38;99850.44;;;6.98;100.00
14253;BME280;7210;51.502;10.722;2023-02-19T10:42:15;99869.06;;;7.03;100.00
14253;BME280;7210;51.502;10.722;2023-02-19T10:44:47;99876.72;;;6.98;100.00
14253;BME280;7210;51.502;10.722;2023-02-19T10:47:22;99882.97;;;6.97;100.00
14253;BME280;7210;51.502;10.722;2023-02-19T10:49:51;99881.91;;;6.85;100.00
14253;BME280;7210;51.502;10.722;2023-02-19T10:52:23;99882.31;;;6.82;100.00
14253;BME280;7210;51.502;10.722;2023-02-19T10:55:13;99906.97;;;6.81;100.00
14253;BME280;7210;51.502;10.722;2023-02-19T10:57:41;99911.19;;;6.75;100.00
14253;BME280;7210;51.502;10.722;2023-02-19T11:00:24;99918.06;;;6.76;100.00
14253;BME280;7210;51.502;10.722;2023-02-19T11:03:18;99906.28;;;6.66;100.00
14253;BME280;7210;51.502;10.722;2023-02-19T11:05:53;99911.78;;;6.71;100.00
14253;BME280;7210;51.502;10.722;2023-02-19T11:08:23;99917.03;;;6.71;100.00
14253;BME280;7210;51.502;10.722;2023-02-19T11:10:52;99947.00;;;6.89;100.00
14253;BME280;7210;51.502;10.722;2023-02-19T11:13:29;99967.69;;;6.99;100.00
14253;BME280;7210;51.502;10.722;2023-02-19T11:15:58;99970.16;;;7.07;100.00
14253;BME280;7210;51.502;10.722;2023-02-19T11:18:28;99972.56;;;7.02;100.00
14253;BME280;7210;51.502;10.722;2023-02-19T11:20:58;99977.28;;;7.13;100.00
14253;BME280;7210;51.502;10.722;2023-02-19T11:23:29;99960.84;;;7.04;100.00
14253;BME280;7210;51.502;10.722;2023-02-19T11:26:01;99968.13;;;7.02;100.00
14253;BME280;7210;51.502;10.722;2023-02-19T11:28:32;99972.63;;;7.15;100.00
14253;BME280;7210;51.502;10.722;2023-02-19T11:31:22;99962.72;;;7.17;100.00
14253;BME280;7210;51.502;10.722;2023-02-19T11:33:55;99973.09;;;7.25;100.00
14253;BME280;7210;51.502;10.722;2023-02-19T11:36:33;99976.59;;;7.38;100.00
14253;BME280;7210;51.502;10.722;2023-02-19T11:39:23;99966.66;;;7.40;100.00
14253;BME280;7210;51.502;10.722;2023-02-19T11:42:30;99982.94;;;7.56;100.00
14253;BME280;7210;51.502;10.722;2023-02-19T11:45:22;99988.84;;;7.71;100.00
14253;BME280;7210;51.502;10.722;2023-02-19T11:51:30;100012.81;;;8.02;100.00
14253;BME280;7210;51.502;10.722;2023-02-19T11:54:26;100024.34;;;8.14;100.00
14253;BME280;7210;51.502;10.722;2023-02-19T11:57:34;100026.22;;;8.20;100.00
14253;BME280;7210;51.502;10.722;2023-02-19T12:00:22;99987.47;;;8.01;100.00
14253;BME280;7210;51.502;10.722;2023-02-19T12:03:20;99961.13;;;8.01;100.00
14253;BME280;7210;51.502;10.722;2023-02-19T12:06:17;99952.41;;;7.88;100.00
14253;BME280;7210;51.502;10.722;2023-02-19T12:09:20;99971.66;;;8.01;100.00
14253;BME280;7210;51.502;10.722;2023-02-19T12:12:22;99994.38;;;8.15;100.00
14253;BME280;7210;51.502;10.722;2023-02-19T12:19:00;99971.66;;;8.01;99.15
14253;BME280;7210;51.502;10.722;2023-02-19T12:22:02;99971.28;;;8.11;98.67
14253;BME280;7210;51.502;10.722;2023-02-19T12:24:57;99976.53;;;8.04;98.40
14253;BME280;7210;51.502;10.722;2023-02-19T12:27:46;99978.16;;;8.05;98.56
14253;BME280;7210;51.502;10.722;2023-02-19T12:30:41;100001.25;;;8.03;99.17
14253;BME280;7210;51.502;10.722;2023-02-19T12:33:53;100016.41;;;8.01;98.96
14253;BME280;7210;51.502;10.722;2023-02-19T12:36:37;100030.84;;;8.18;99.14
14253;BME280;7210;51.502;10.722;2023-02-19T12:39:17;100039.81;;;8.24;99.35
14253;BME280;7210;51.502;10.722;2023-02-19T12:42:00;100046.47;;;8.20;98.56
14253;BME280;7210;51.502;10.722;2023-02-19T12:44:40;100042.25;;;8.25;98.64
14253;BME280;7210;51.502;10.722;2023-02-19T12:47:16;100044.25;;;8.23;98.45
14253;BME280;7210;51.502;10.722;2023-02-19T12:49:54;100066.38;;;8.35;98.80
14253;BME280;7210;51.502;10.722;2023-02-19T12:52:27;100051.56;;;8.34;98.22
14253;BME280;7210;51.502;10.722;2023-02-19T12:55:21;100028.44;;;8.23;96.75
14253;BME280;7210;51.502;10.722;2023-02-19T12:57:50;100013.66;;;8.22;95.93
14253;BME280;7210;51.502;10.722;2023-02-19T13:00:30;100012.66;;;8.23;95.56
14253;BME280;7210;51.502;10.722;2023-02-19T13:03:06;100022.72;;;8.13;95.96
14253;BME280;7210;51.502;10.722;2023-02-19T13:05:45;100039.13;;;8.02;96.50
14253;BME280;7210;51.502;10.722;2023-02-19T13:08:25;100058.72;;;7.93;97.06
14253;BME280;7210;51.502;10.722;2023-02-19T13:10:59;100074.53;;;7.93;96.80
14253;BME280;7210;51.502;10.722;2023-02-19T13:13:35;100061.16;;;7.95;95.87
14253;BME280;7210;51.502;10.722;2023-02-19T13:16:10;100069.66;;;7.90;96.36
14253;BME280;7210;51.502;10.722;2023-02-19T13:18:46;100097.25;;;8.01;96.32
14253;BME280;7210;51.502;10.722;2023-02-19T13:21:16;100097.66;;;8.04;96.41
14253;BME280;7210;51.502;10.722;2023-02-19T13:24:01;100117.53;;;8.07;96.98
14253;BME280;7210;51.502;10.722;2023-02-19T13:27:05;100144.28;;;8.17;97.70
14253;BME280;7210;51.502;10.722;2023-02-19T13:30:00;100187.53;;;8.35;98.71
14253;BME280;7210;51.502;10.722;2023-02-19T13:32:57;100207.66;;;8.49;98.95
14253;BME280;7210;51.502;10.722;2023-02-19T13:36:01;100214.16;;;8.60;98.28
14253;BME280;7210;51.502;10.722;2023-02-19T13:38:32;100205.69;;;8.64;97.97
14253;BME280;7210;51.502;10.722;2023-02-19T13:41:03;100180.53;;;8.68;96.47
14253;BME280;7210;51.502;10.722;2023-02-19T13:43:43;100185.44;;;8.84;96.96